Portada
METAR-TAF:

METAR-TAF

Aeropuertos :

Aeropuerto Internacional de Hong Kong

Hong Kong, China

latitud: 22-19N, longitud: 113-55E, altitud: 9 m

Observación

El informe se hizo hace 7 minutos, a las 16:30 UTC
Viento 9 kt del este-sureste
Temperatura 19°C
Humedad 73%
Presión 1020 hPa
Visibilidad 10 km o más
sin nubes por debajo de 1500 m y sin presencia de cumulonimbus.

METAR: VHHH 111630Z 11009KT CAVOK 19/14 Q1020 NOSIG

Hora: 00:37 (16:37 UTC)

Pronóstico

El informe se hizo hace 5 horas y 37 minutos, a las 11:00 UTC
Pronóstico válido del 11 a las 12 UTC al 12 a las 18 UTC
Viento 10 kt del este
Visibilidad: 9000 m
Escasas nubes a una altura de 4000 ft

TAF: VHHH 111100Z 1112/1218 10010KT 9000 FEW040 TX22/1206Z TN17/1123Z

Observaciones y pronósticos meteorológicos de más de 4000 aeropuertos (mensajes METAR y TAF).

Los puntos amarillos y rojos representan las estaciones disponibles.

Ponga el ratón en el punto deseado para ver el nombre de la estación.

Haga clic para ver las observaciones y los pronósticos meteorológicos.

Para cambiar el mapa : haga clic en los botones verdes con una cruz de color negro para hacer un zoom, en el botón verde con un guión para alejar o en las flechas verdes para mapas adyacentes.


METAR-TAF: